createdAt,value
2017-08-14T00:01:59.248Z,82.90
2017-08-14T00:04:28.142Z,82.90
2017-08-14T00:06:57.020Z,83.10
2017-08-14T00:09:25.900Z,83.20
2017-08-14T00:11:54.771Z,83.20
2017-08-14T00:14:23.674Z,83.10
2017-08-14T00:16:52.562Z,83.10
2017-08-14T00:19:21.446Z,83.20
2017-08-14T00:21:50.326Z,83.20
2017-08-14T00:24:19.207Z,83.10
2017-08-14T00:26:48.091Z,83.20
2017-08-14T00:29:16.981Z,83.20
2017-08-14T00:31:45.866Z,83.20
2017-08-14T00:34:14.736Z,83.20
2017-08-14T00:36:43.630Z,83.20
2017-08-14T00:39:12.518Z,83.30
2017-08-14T00:41:41.412Z,83.20
2017-08-14T00:44:10.292Z,83.20
2017-08-14T00:46:39.142Z,83.20
2017-08-14T00:49:08.025Z,83.10
2017-08-14T00:51:36.926Z,83.30
2017-08-14T00:54:05.788Z,83.50
2017-08-14T00:56:34.629Z,83.70
2017-08-14T00:59:03.522Z,83.80
2017-08-14T01:01:32.400Z,83.80
2017-08-14T01:04:01.281Z,84.30
2017-08-14T01:06:30.160Z,83.70
2017-08-14T01:08:59.049Z,83.70
2017-08-14T01:11:27.942Z,83.90
2017-08-14T01:13:56.830Z,84.20
2017-08-14T01:16:25.713Z,84.10
2017-08-14T01:18:54.596Z,84.20
2017-08-14T01:21:23.490Z,84.30
2017-08-14T01:23:52.384Z,84.40
2017-08-14T01:26:21.264Z,84.60
2017-08-14T01:28:50.145Z,84.70
2017-08-14T01:31:19.036Z,84.60
2017-08-14T01:33:48.698Z,84.70
2017-08-14T01:36:17.583Z,84.70
2017-08-14T01:38:46.482Z,84.90
2017-08-14T01:41:15.365Z,84.90
2017-08-14T01:43:44.248Z,85.00
2017-08-14T01:46:13.138Z,85.00
2017-08-14T01:48:42.028Z,85.20
2017-08-14T01:51:10.907Z,85.20
2017-08-14T01:53:39.798Z,85.10
2017-08-14T01:56:08.685Z,85.50
2017-08-14T01:58:37.573Z,85.30
2017-08-14T02:01:06.462Z,85.60
2017-08-14T02:03:35.367Z,85.80
2017-08-14T02:06:04.253Z,86.00
2017-08-14T02:08:33.161Z,86.20
2017-08-14T02:11:02.036Z,86.20
2017-08-14T02:13:30.923Z,86.40
2017-08-14T02:15:59.814Z,86.50
2017-08-14T02:18:28.723Z,86.50
2017-08-14T02:20:57.617Z,86.60
2017-08-14T02:23:26.522Z,86.60
2017-08-14T02:25:55.420Z,86.60
2017-08-14T02:28:24.283Z,86.50
2017-08-14T02:30:53.168Z,86.60
2017-08-14T02:33:22.057Z,86.70
2017-08-14T02:35:50.957Z,86.90
2017-08-14T02:38:19.829Z,86.90
2017-08-14T02:40:48.726Z,86.90
2017-08-14T02:43:17.623Z,87.00
2017-08-14T02:45:46.507Z,87.10
2017-08-14T02:48:15.380Z,87.30
2017-08-14T02:50:45.059Z,87.30
2017-08-14T02:53:13.951Z,87.30
2017-08-14T02:55:42.854Z,87.30
2017-08-14T02:58:11.754Z,87.40
2017-08-14T03:00:41.438Z,87.50
2017-08-14T03:03:10.332Z,87.50
2017-08-14T03:05:39.232Z,87.60
2017-08-14T03:08:08.136Z,87.90
2017-08-14T03:10:37.809Z,88.40
2017-08-14T03:13:06.703Z,87.80
2017-08-14T03:15:35.615Z,88.00
2017-08-14T03:18:04.512Z,88.30
2017-08-14T03:20:33.382Z,88.40
2017-08-14T03:23:02.290Z,88.20
2017-08-14T03:25:31.184Z,88.10
2017-08-14T03:28:00.102Z,87.90
2017-08-14T03:30:29.783Z,87.90
2017-08-14T03:32:58.646Z,87.90
2017-08-14T03:35:27.573Z,87.50
2017-08-14T03:37:56.468Z,87.50
2017-08-14T03:40:25.370Z,87.50
2017-08-14T03:42:55.028Z,87.40
2017-08-14T03:45:23.920Z,87.40
2017-08-14T03:47:52.817Z,87.50
2017-08-14T03:50:21.718Z,87.40
2017-08-14T03:52:50.632Z,87.20
2017-08-14T03:55:19.539Z,87.20
2017-08-14T03:57:49.204Z,87.10
2017-08-14T04:00:18.100Z,87.00
2017-08-14T04:02:47.005Z,87.10
2017-08-14T04:05:15.917Z,87.10
2017-08-14T04:07:44.825Z,87.30
2017-08-14T04:10:14.497Z,87.60
2017-08-14T04:12:43.399Z,87.50
2017-08-14T04:15:12.447Z,87.60
2017-08-14T04:17:41.349Z,87.50
2017-08-14T04:20:10.251Z,87.50
2017-08-14T04:22:39.148Z,87.50
2017-08-14T04:25:08.038Z,87.60
2017-08-14T04:27:36.954Z,87.70
2017-08-14T04:30:05.911Z,87.70
2017-08-14T04:32:34.805Z,88.00
2017-08-14T04:35:03.696Z,87.90
2017-08-14T04:37:32.592Z,88.10
2017-08-14T04:40:01.503Z,88.20
2017-08-14T04:42:30.417Z,88.10
2017-08-14T04:44:59.326Z,88.10
2017-08-14T04:47:29.004Z,88.20
2017-08-14T04:49:57.918Z,88.20
2017-08-14T04:52:27.606Z,89.00
2017-08-14T04:54:56.517Z,88.30
2017-08-14T04:57:25.415Z,88.30
2017-08-14T04:59:55.096Z,87.90
2017-08-14T05:02:24.007Z,87.90
2017-08-14T05:04:52.904Z,88.00
2017-08-14T05:07:21.796Z,87.90
2017-08-14T05:09:50.697Z,88.00
2017-08-14T05:12:20.356Z,87.80
2017-08-14T05:14:49.257Z,87.80
2017-08-14T05:17:18.135Z,87.90
2017-08-14T05:19:47.049Z,87.80
2017-08-14T05:22:16.006Z,87.70
2017-08-14T05:24:44.902Z,87.60
2017-08-14T05:27:13.796Z,87.60
2017-08-14T05:29:42.695Z,87.40
2017-08-14T05:32:11.605Z,87.30
2017-08-14T05:34:40.515Z,87.40
2017-08-14T05:37:09.422Z,87.40
2017-08-14T05:39:39.084Z,88.00
2017-08-14T05:42:07.985Z,87.30
2017-08-14T05:44:36.884Z,87.40
2017-08-14T05:47:05.755Z,87.30
2017-08-14T05:49:34.622Z,87.20
2017-08-14T05:52:03.482Z,86.90
2017-08-14T05:54:32.376Z,86.70
2017-08-14T05:57:01.282Z,86.60
2017-08-14T05:59:30.917Z,85.90
2017-08-14T06:01:59.686Z,85.90
2017-08-14T06:04:29.340Z,86.00
2017-08-14T06:06:58.239Z,85.90
2017-08-14T06:09:27.133Z,85.70
2017-08-14T06:11:56.029Z,85.60
2017-08-14T06:14:24.928Z,85.60
2017-08-14T06:16:53.837Z,85.60
2017-08-14T06:19:22.729Z,85.60
2017-08-14T06:21:51.628Z,85.40
2017-08-14T06:24:21.294Z,85.30
2017-08-14T06:26:50.194Z,84.70
2017-08-14T06:29:19.082Z,84.30
2017-08-14T06:31:47.968Z,84.20
2017-08-14T06:34:16.852Z,84.10
2017-08-14T06:36:45.741Z,84.10
2017-08-14T06:39:14.638Z,84.00
2017-08-14T06:41:43.526Z,84.00
2017-08-14T06:44:12.426Z,83.80
2017-08-14T06:46:41.826Z,83.90
2017-08-14T06:49:10.715Z,83.60
2017-08-14T06:51:39.614Z,83.30
2017-08-14T06:54:08.471Z,82.90
2017-08-14T06:56:37.357Z,82.60
2017-08-14T06:59:06.246Z,81.90
2017-08-14T07:01:35.193Z,81.40
2017-08-14T07:04:04.051Z,81.10
2017-08-14T07:06:32.751Z,80.70
2017-08-14T07:09:01.639Z,80.40
2017-08-14T07:11:30.528Z,80.20
2017-08-14T07:13:59.418Z,80.00
2017-08-14T07:16:28.305Z,79.30
2017-08-14T07:18:57.193Z,78.90
2017-08-14T07:21:26.071Z,78.30
2017-08-14T07:24:03.277Z,77.70
2017-08-14T07:26:32.157Z,77.70
2017-08-14T07:29:01.031Z,77.40
2017-08-14T07:31:29.993Z,77.30
2017-08-14T07:33:58.848Z,76.70
2017-08-14T07:36:27.755Z,76.30
2017-08-14T07:38:56.637Z,75.80
2017-08-14T07:41:25.521Z,75.40
2017-08-14T07:43:55.145Z,74.70
2017-08-14T07:46:24.045Z,74.30
2017-08-14T07:48:52.938Z,73.70
2017-08-14T07:51:21.813Z,73.20
2017-08-14T07:53:50.710Z,72.60
2017-08-14T07:56:19.603Z,72.20
2017-08-14T07:58:48.481Z,71.70
2017-08-14T08:01:17.382Z,71.30
2017-08-14T08:03:46.241Z,71.10
2017-08-14T08:06:15.121Z,70.60
2017-08-14T08:08:44.770Z,69.90
2017-08-14T08:11:13.655Z,69.70
2017-08-14T08:13:42.516Z,69.50
2017-08-14T08:16:12.164Z,68.80
2017-08-14T08:18:41.044Z,68.70
2017-08-14T08:21:09.929Z,68.60
2017-08-14T08:23:38.835Z,68.60
2017-08-14T08:26:07.729Z,67.70
2017-08-14T08:28:36.619Z,67.00
2017-08-14T08:31:05.514Z,66.10
2017-08-14T08:33:34.397Z,65.60
2017-08-14T08:36:03.282Z,65.10
2017-08-14T08:38:32.173Z,64.20
2017-08-14T08:41:01.071Z,63.40
2017-08-14T08:43:30.010Z,63.50
2017-08-14T08:45:58.878Z,62.50
2017-08-14T08:48:27.768Z,62.10
2017-08-14T08:50:56.677Z,61.40
2017-08-14T08:53:25.566Z,60.80
2017-08-14T08:55:54.445Z,60.50
2017-08-14T08:58:23.347Z,59.90
2017-08-14T09:00:52.242Z,59.00
2017-08-14T09:03:21.128Z,58.50
2017-08-14T09:05:50.021Z,58.20
2017-08-14T09:08:18.900Z,57.90
2017-08-14T09:10:47.785Z,57.20
2017-08-14T09:13:16.681Z,56.30
2017-08-14T09:15:45.578Z,55.70
2017-08-14T09:18:14.465Z,55.10
2017-08-14T09:20:43.362Z,54.80
2017-08-14T09:23:12.241Z,53.90
2017-08-14T09:25:41.124Z,53.70
2017-08-14T09:28:09.983Z,53.50
2017-08-14T09:30:39.621Z,52.80
2017-08-14T09:33:08.517Z,52.70
2017-08-14T09:35:37.366Z,52.60
2017-08-14T09:38:06.214Z,52.30
2017-08-14T09:40:35.070Z,52.00
2017-08-14T09:43:03.976Z,51.60
2017-08-14T09:45:32.517Z,50.90
2017-08-14T09:48:01.369Z,50.30
2017-08-14T09:50:30.236Z,50.00
2017-08-14T09:52:59.100Z,49.50
2017-08-14T09:55:28.729Z,49.00
2017-08-14T09:57:57.598Z,48.90
2017-08-14T10:00:27.260Z,48.40
2017-08-14T10:02:56.157Z,48.40
2017-08-14T10:05:25.042Z,48.10
2017-08-14T10:07:53.935Z,48.00
2017-08-14T10:10:23.333Z,47.10
2017-08-14T10:12:52.190Z,47.60
2017-08-14T10:15:21.814Z,46.50
2017-08-14T10:17:50.713Z,46.40
2017-08-14T10:20:19.558Z,46.20
2017-08-14T10:22:48.421Z,46.30
2017-08-14T10:25:17.818Z,46.10
2017-08-14T10:27:47.214Z,45.90
2017-08-14T10:30:15.832Z,45.90
2017-08-14T10:32:44.720Z,45.50
2017-08-14T10:35:14.106Z,45.20
2017-08-14T10:37:43.517Z,44.70
2017-08-14T10:40:12.160Z,44.70
2017-08-14T10:42:40.790Z,44.60
2017-08-14T10:45:10.179Z,44.10
2017-08-14T10:47:38.802Z,44.00
2017-08-14T10:50:07.420Z,44.00
2017-08-14T10:52:36.018Z,43.60
2017-08-14T10:55:04.644Z,43.10
2017-08-14T10:57:33.230Z,42.80
2017-08-14T11:00:02.631Z,43.00
2017-08-14T11:02:32.029Z,42.60
2017-08-14T11:05:01.423Z,42.80
2017-08-14T11:07:30.813Z,42.20
2017-08-14T11:09:59.433Z,42.20
2017-08-14T11:12:28.069Z,42.20
2017-08-14T11:14:56.688Z,42.70
2017-08-14T11:17:26.083Z,42.00
2017-08-14T11:19:55.463Z,41.70
2017-08-14T11:22:24.076Z,41.90
2017-08-14T11:24:53.464Z,42.10
2017-08-14T11:27:22.083Z,41.60
2017-08-14T11:29:50.692Z,41.40
2017-08-14T11:32:19.122Z,41.10
2017-08-14T11:34:47.748Z,41.10
2017-08-14T11:37:16.375Z,41.10
2017-08-14T11:39:45.007Z,42.20
2017-08-14T11:42:13.629Z,42.00
2017-08-14T11:44:42.245Z,42.10
2017-08-14T11:47:11.872Z,42.20
2017-08-14T11:49:41.266Z,42.40
2017-08-14T11:52:10.658Z,42.50
2017-08-14T11:54:39.294Z,42.50
2017-08-14T11:57:07.937Z,42.50
2017-08-14T11:59:36.562Z,41.70
2017-08-14T12:02:05.194Z,41.40
2017-08-14T12:04:33.805Z,41.40
2017-08-14T12:07:03.198Z,41.30
2017-08-14T12:09:31.822Z,41.30
2017-08-14T12:12:00.445Z,41.40
2017-08-14T12:14:29.078Z,41.20
2017-08-14T12:16:57.688Z,40.70
2017-08-14T12:19:26.313Z,40.90
2017-08-14T12:21:54.941Z,40.90
2017-08-14T12:24:23.569Z,40.60
2017-08-14T12:26:52.197Z,40.40
2017-08-14T12:29:20.822Z,40.20
2017-08-14T12:31:49.451Z,40.00
2017-08-14T12:34:18.081Z,39.70
2017-08-14T12:36:46.715Z,40.20
2017-08-14T12:39:15.342Z,39.50
2017-08-14T12:41:43.932Z,39.70
2017-08-14T12:44:12.721Z,39.00
2017-08-14T12:46:41.344Z,38.80
2017-08-14T12:49:09.972Z,38.70
2017-08-14T12:51:38.584Z,39.20
2017-08-14T12:54:07.206Z,38.80
2017-08-14T12:56:35.793Z,38.80
2017-08-14T12:59:04.386Z,38.50
2017-08-14T13:01:32.980Z,38.50
2017-08-14T13:04:02.329Z,38.50
2017-08-14T13:06:30.953Z,38.40
2017-08-14T13:08:59.578Z,38.00
2017-08-14T13:11:28.197Z,37.40
2017-08-14T13:13:56.787Z,37.10
2017-08-14T13:16:25.425Z,36.10
2017-08-14T13:18:54.040Z,35.60
2017-08-14T13:21:22.668Z,35.90
2017-08-14T13:23:51.277Z,36.30
2017-08-14T13:26:20.178Z,36.50
2017-08-14T13:28:48.801Z,36.70
2017-08-14T13:31:17.417Z,36.20
2017-08-14T13:33:46.015Z,35.80
2017-08-14T13:36:15.410Z,36.20
2017-08-14T13:38:44.042Z,35.50
2017-08-14T13:41:12.665Z,35.70
2017-08-14T13:43:41.296Z,35.50
2017-08-14T13:46:09.908Z,35.30
2017-08-14T13:48:38.524Z,35.60
2017-08-14T13:51:07.153Z,35.10
2017-08-14T13:53:35.745Z,34.00
2017-08-14T13:56:04.356Z,33.50
2017-08-14T13:58:32.983Z,33.40
2017-08-14T14:01:02.365Z,34.30
2017-08-14T14:03:30.989Z,33.50
2017-08-14T14:05:59.605Z,33.00
2017-08-14T14:08:28.231Z,32.50
2017-08-14T14:10:56.861Z,33.20
2017-08-14T14:13:25.484Z,33.10
2017-08-14T14:15:54.110Z,33.50
2017-08-14T14:18:22.739Z,33.60
2017-08-14T14:20:51.360Z,33.60
2017-08-14T14:23:19.994Z,33.30
2017-08-14T14:25:48.615Z,33.20
2017-08-14T14:28:17.247Z,33.30
2017-08-14T14:30:45.822Z,33.20
2017-08-14T14:33:14.458Z,33.30
2017-08-14T14:35:43.072Z,33.20
2017-08-14T14:38:11.701Z,32.70
2017-08-14T14:40:40.313Z,32.80
2017-08-14T14:43:08.926Z,32.90
2017-08-14T14:45:37.550Z,33.00
2017-08-14T14:48:06.128Z,32.70
2017-08-14T14:50:34.745Z,32.20
2017-08-14T14:53:03.336Z,32.20
2017-08-14T14:55:31.962Z,32.50
2017-08-14T14:58:01.350Z,31.80
2017-08-14T15:00:29.971Z,32.20
2017-08-14T15:02:58.593Z,32.40
2017-08-14T15:05:27.227Z,32.70
2017-08-14T15:07:56.614Z,33.00
2017-08-14T15:10:25.241Z,32.90
2017-08-14T15:12:53.862Z,33.20
2017-08-14T15:15:23.279Z,33.90
2017-08-14T15:17:51.913Z,33.80
2017-08-14T15:20:20.528Z,33.80
2017-08-14T15:22:49.121Z,33.60
2017-08-14T15:25:17.748Z,33.70
2017-08-14T15:27:47.142Z,34.50
2017-08-14T15:30:15.767Z,34.20
2017-08-14T15:32:44.360Z,34.30
2017-08-14T15:35:12.996Z,34.40
2017-08-14T15:37:41.618Z,34.70
2017-08-14T15:40:10.236Z,34.50
2017-08-14T15:42:38.870Z,34.80
2017-08-14T15:45:07.514Z,35.00
2017-08-14T15:47:36.150Z,34.90
2017-08-14T15:50:04.790Z,34.70
2017-08-14T15:52:36.451Z,34.70
2017-08-14T15:55:05.076Z,34.70
2017-08-14T15:57:33.706Z,35.20
2017-08-14T16:00:02.329Z,35.00
2017-08-14T16:02:31.734Z,35.30
2017-08-14T16:05:00.363Z,35.30
2017-08-14T16:07:28.987Z,35.50
2017-08-14T16:09:57.617Z,35.40
2017-08-14T16:12:26.232Z,35.50
2017-08-14T16:14:54.867Z,35.50
2017-08-14T16:17:23.492Z,35.50
2017-08-14T16:19:51.651Z,35.70
2017-08-14T16:22:20.291Z,35.60
2017-08-14T16:24:48.922Z,35.80
2017-08-14T16:27:17.541Z,35.90
2017-08-14T16:29:46.149Z,35.90
2017-08-14T16:32:14.762Z,36.30
2017-08-14T16:34:43.390Z,36.50
2017-08-14T16:37:12.015Z,36.60
2017-08-14T16:39:40.629Z,36.80
2017-08-14T16:42:09.246Z,36.70
2017-08-14T16:53:20.618Z,37.50
2017-08-14T16:55:49.245Z,37.40
2017-08-14T16:58:17.864Z,37.70
2017-08-14T17:00:46.487Z,38.00
2017-08-14T17:03:15.846Z,38.30
2017-08-14T17:05:44.186Z,38.20
2017-08-14T17:08:13.586Z,38.60
2017-08-14T17:10:42.221Z,38.60
2017-08-14T17:13:10.952Z,38.70
2017-08-14T17:15:40.345Z,39.00
2017-08-14T17:18:09.245Z,39.00
2017-08-14T17:20:37.874Z,39.20
2017-08-14T17:23:06.504Z,39.50
2017-08-14T17:25:35.136Z,39.80
2017-08-14T17:28:03.761Z,40.10
2017-08-14T17:30:33.232Z,40.30
2017-08-14T17:33:01.866Z,40.40
2017-08-14T17:35:30.742Z,40.80
2017-08-14T17:37:59.395Z,41.10
2017-08-14T17:40:28.032Z,41.40
2017-08-14T17:42:59.680Z,41.70
2017-08-14T17:45:29.305Z,42.00
2017-08-14T17:51:07.079Z,43.00
2017-08-14T18:05:26.098Z,44.40
2017-08-14T18:07:54.985Z,44.70
2017-08-14T18:10:23.928Z,45.10
2017-08-14T18:12:52.808Z,45.40
2017-08-14T18:15:21.892Z,45.70
2017-08-14T18:17:51.550Z,46.20
2017-08-14T18:20:20.459Z,46.20
2017-08-14T18:22:49.344Z,46.40
2017-08-14T18:25:18.236Z,46.70
2017-08-14T18:27:47.090Z,47.00
2017-08-14T18:30:23.924Z,47.10
2017-08-14T18:32:54.642Z,47.90
2017-08-14T18:38:24.173Z,48.10
2017-08-14T18:40:55.338Z,48.40
2017-08-14T18:43:25.970Z,48.80
2017-08-14T18:52:15.744Z,49.50
2017-08-14T18:57:39.725Z,50.30
2017-08-14T19:00:08.409Z,50.40
2017-08-14T19:03:08.883Z,50.40
2017-08-14T19:05:40.445Z,50.70
2017-08-14T19:08:10.962Z,50.90
2017-08-14T19:10:39.829Z,51.20
2017-08-14T19:13:08.715Z,51.40
2017-08-14T19:15:37.614Z,51.80
2017-08-14T19:18:06.525Z,51.90
2017-08-14T19:20:35.413Z,52.30
2017-08-14T19:23:04.307Z,52.60
2017-08-14T19:25:33.197Z,52.80
2017-08-14T19:28:02.085Z,53.20
2017-08-14T19:30:30.971Z,53.50
2017-08-14T19:33:00.812Z,53.70
2017-08-14T19:35:30.445Z,53.70
2017-08-14T19:38:00.105Z,54.30
2017-08-14T19:40:28.989Z,54.30
2017-08-14T19:42:57.843Z,54.70
2017-08-14T19:45:27.493Z,55.50
2017-08-14T19:47:56.425Z,55.40
2017-08-14T19:50:25.316Z,55.90
2017-08-14T19:52:54.261Z,56.10
2017-08-14T19:55:23.154Z,56.50
2017-08-14T19:57:52.028Z,56.80
2017-08-14T20:00:21.691Z,56.80
2017-08-14T20:02:50.567Z,56.70
2017-08-14T20:05:19.408Z,56.80
2017-08-14T20:07:49.041Z,56.80
2017-08-14T20:10:17.942Z,56.70
2017-08-14T20:12:46.841Z,56.90
2017-08-14T20:15:15.768Z,56.90
2017-08-14T20:17:44.639Z,57.10
2017-08-14T20:20:13.542Z,57.40
2017-08-14T20:22:42.400Z,57.40
2017-08-14T20:25:11.309Z,57.70
2017-08-14T20:27:40.202Z,57.60
2017-08-14T20:30:09.090Z,57.80
2017-08-14T20:32:38.022Z,57.90
2017-08-14T20:35:06.914Z,58.00
2017-08-14T20:37:35.797Z,58.10
2017-08-14T20:40:04.640Z,58.20
2017-08-14T20:42:33.538Z,58.30
2017-08-14T20:45:02.422Z,58.40
2017-08-14T20:47:31.310Z,58.60
2017-08-14T20:50:00.155Z,59.00
2017-08-14T20:52:29.021Z,59.20
2017-08-14T20:54:57.900Z,59.40
2017-08-14T20:57:26.786Z,59.60
2017-08-14T20:59:55.665Z,59.70
2017-08-14T21:02:24.560Z,59.90
2017-08-14T21:04:53.437Z,60.10
2017-08-14T21:07:22.341Z,60.40
2017-08-14T21:09:51.249Z,60.50
2017-08-14T21:12:20.169Z,60.90
2017-08-14T21:14:49.067Z,61.10
2017-08-14T21:17:17.907Z,61.30
2017-08-14T21:19:46.784Z,61.40
2017-08-14T21:22:17.136Z,61.70
2017-08-14T21:24:46.030Z,61.70
2017-08-14T21:27:14.913Z,62.00
2017-08-14T21:29:43.807Z,62.20
2017-08-14T21:32:12.693Z,62.40
2017-08-14T21:34:41.578Z,62.60
2017-08-14T21:37:10.481Z,62.90
2017-08-14T21:39:39.371Z,63.20
2017-08-14T21:42:08.252Z,63.40
2017-08-14T21:44:37.133Z,63.60
2017-08-14T21:47:06.754Z,64.00
2017-08-14T21:49:35.603Z,64.00
2017-08-14T21:52:04.482Z,64.10
2017-08-14T21:54:33.364Z,64.50
2017-08-14T21:57:02.248Z,64.50
2017-08-14T21:59:31.133Z,64.60
2017-08-14T22:02:00.012Z,64.80
2017-08-14T22:04:28.885Z,64.90
2017-08-14T22:06:58.510Z,65.10
2017-08-14T22:09:27.370Z,65.10
2017-08-14T22:11:56.980Z,65.60
2017-08-14T22:14:26.657Z,65.70
2017-08-14T22:16:55.517Z,65.70
2017-08-14T22:19:24.401Z,66.10
2017-08-14T22:21:53.249Z,66.10
2017-08-14T22:24:22.102Z,66.30
2017-08-14T22:26:50.985Z,66.50
2017-08-14T22:29:19.869Z,66.60
2017-08-14T22:31:48.748Z,66.90
2017-08-14T22:34:17.633Z,67.00
2017-08-14T22:36:46.549Z,67.20
2017-08-14T22:39:15.436Z,67.30
2017-08-14T22:41:44.330Z,67.70
2017-08-14T22:44:13.249Z,68.00
2017-08-14T22:46:42.141Z,68.30
2017-08-14T22:49:10.989Z,68.40
2017-08-14T22:51:39.851Z,68.40
2017-08-14T22:54:08.735Z,68.60
2017-08-14T22:56:37.620Z,69.00
2017-08-14T22:59:06.485Z,69.10
2017-08-14T23:01:35.337Z,69.30
2017-08-14T23:04:04.954Z,69.50
2017-08-14T23:06:33.841Z,69.50
2017-08-14T23:09:02.543Z,69.50
2017-08-14T23:11:31.397Z,69.50
2017-08-14T23:14:00.255Z,69.80
2017-08-14T23:16:29.154Z,69.70
2017-08-14T23:18:58.035Z,69.50
2017-08-14T23:21:26.909Z,69.60
2017-08-14T23:23:55.788Z,69.40
2017-08-14T23:26:24.681Z,69.60
2017-08-14T23:28:53.566Z,69.80
2017-08-14T23:31:22.462Z,70.00
2017-08-14T23:33:51.341Z,70.00
2017-08-14T23:36:20.245Z,70.10
2017-08-14T23:38:49.124Z,70.40
2017-08-14T23:41:17.979Z,70.40
2017-08-14T23:43:46.869Z,70.40
2017-08-14T23:46:15.778Z,70.50
2017-08-14T23:48:45.428Z,71.50
2017-08-14T23:51:14.348Z,70.70
2017-08-14T23:53:43.258Z,70.90
2017-08-14T23:56:12.107Z,71.00
2017-08-14T23:58:41.007Z,71.10
